South Hill, Washington
Current Conditions -  °F | °C
As of 10:58 AM on Thursday 18 Dec 2014 (Local Time) from KTCM Reporting Station
Light Rain Light Rain  
Wind Chill: 45°   Ceiling: 4500
Heat Index: 45°   Visibility: 9mi
Dew Point: 45°   Wind: 2mph
Humidity: 100%   Direction: 140°SE
Pressure: 29.91"   Gusts: NA
Location:  47.14°N, 122.26°W
Report Text: KTCM 181858Z AUTO 14002KT 9SM -RA BKN045 OVC060 07/07 A2991 RMK AO2 RAB39 SLP134 P0001 T00740074 $
Loading
Personal Weather Stations






























Interactive Weather Map New forecast layout! Learn more

10-Day Weather Forecast

Advertisements
Track Severe Weather on mobile